Weather at Guasdalito Airport

Public forecast

Using degrees Celsius for public forecast. Weather courtesy of forecast.io.

Current aviation weather report (METAR) for Guasdalito Airport

Report is more than 2 hours old.

Retrieved 2020/09/30 23:02 UTC (5 hours ago):

SVGD 302302Z AUTO 17001KT NCD 30/25 Q1009

Closest aviation forecast (TAF) to Guasdalito Airport

Forecast is more than 6 hours old.

Closest forecast is San Antonio Del Tachira Airport, 104.2 nm (193.0 km) WNW. Retrieved 2020/09/30 18:03 UTC (10 hours ago):

TAF TAF SVSA 301600Z 3018/0118 17004KT 9999 SCT020 TX34/3018Z TN21/3008Z TEMPO 3018/3022 09007KT 7000 TSRA OVC017 CB FM292300 14003KT 9999 BKN020